sensor_id;sensor_type;location;lat;lon;timestamp;P1;durP1;ratioP1;P2;durP2;ratioP2
12385;SDS011;6257;57.634;18.310;2022-08-25T00:01:52;2.37;;;2.00;;
12385;SDS011;6257;57.634;18.310;2022-08-25T00:04:21;1.87;;;1.60;;
12385;SDS011;6257;57.634;18.310;2022-08-25T00:06:49;2.90;;;1.80;;
12385;SDS011;6257;57.634;18.310;2022-08-25T00:09:20;2.20;;;1.97;;
12385;SDS011;6257;57.634;18.310;2022-08-25T00:11:50;2.97;;;2.10;;
12385;SDS011;6257;57.634;18.310;2022-08-25T00:14:19;4.27;;;1.87;;
12385;SDS011;6257;57.634;18.310;2022-08-25T00:16:48;3.80;;;1.93;;
12385;SDS011;6257;57.634;18.310;2022-08-25T00:19:17;2.40;;;1.80;;
12385;SDS011;6257;57.634;18.310;2022-08-25T00:21:47;2.33;;;1.93;;
12385;SDS011;6257;57.634;18.310;2022-08-25T00:24:15;2.80;;;1.70;;
12385;SDS011;6257;57.634;18.310;2022-08-25T00:26:45;2.83;;;1.80;;
12385;SDS011;6257;57.634;18.310;2022-08-25T00:29:15;1.63;;;1.53;;
12385;SDS011;6257;57.634;18.310;2022-08-25T00:31:42;2.53;;;1.60;;
12385;SDS011;6257;57.634;18.310;2022-08-25T00:34:11;2.27;;;1.73;;
12385;SDS011;6257;57.634;18.310;2022-08-25T00:36:40;2.73;;;1.73;;
12385;SDS011;6257;57.634;18.310;2022-08-25T00:39:08;1.83;;;1.40;;
12385;SDS011;6257;57.634;18.310;2022-08-25T00:41:36;1.50;;;1.40;;
12385;SDS011;6257;57.634;18.310;2022-08-25T00:44:09;1.80;;;1.70;;
12385;SDS011;6257;57.634;18.310;2022-08-25T00:46:39;3.00;;;1.50;;
12385;SDS011;6257;57.634;18.310;2022-08-25T00:49:08;1.67;;;1.50;;
12385;SDS011;6257;57.634;18.310;2022-08-25T00:51:39;1.70;;;1.40;;
12385;SDS011;6257;57.634;18.310;2022-08-25T00:54:10;1.80;;;1.70;;
12385;SDS011;6257;57.634;18.310;2022-08-25T00:56:43;3.30;;;1.73;;
12385;SDS011;6257;57.634;18.310;2022-08-25T00:59:12;1.80;;;1.70;;
12385;SDS011;6257;57.634;18.310;2022-08-25T01:01:40;3.70;;;1.53;;
12385;SDS011;6257;57.634;18.310;2022-08-25T01:04:08;3.50;;;1.53;;
12385;SDS011;6257;57.634;18.310;2022-08-25T01:06:35;2.43;;;1.60;;
12385;SDS011;6257;57.634;18.310;2022-08-25T01:09:06;3.73;;;1.40;;
12385;SDS011;6257;57.634;18.310;2022-08-25T01:11:34;3.10;;;1.40;;
12385;SDS011;6257;57.634;18.310;2022-08-25T01:14:02;2.20;;;1.43;;
12385;SDS011;6257;57.634;18.310;2022-08-25T01:16:33;2.60;;;1.60;;
12385;SDS011;6257;57.634;18.310;2022-08-25T01:19:01;1.50;;;1.40;;
12385;SDS011;6257;57.634;18.310;2022-08-25T01:21:36;2.63;;;1.40;;
12385;SDS011;6257;57.634;18.310;2022-08-25T01:24:06;1.57;;;1.47;;
12385;SDS011;6257;57.634;18.310;2022-08-25T01:26:36;3.97;;;1.50;;
12385;SDS011;6257;57.634;18.310;2022-08-25T01:29:04;2.30;;;1.50;;
12385;SDS011;6257;57.634;18.310;2022-08-25T01:31:46;1.97;;;1.50;;
12385;SDS011;6257;57.634;18.310;2022-08-25T01:34:17;2.50;;;1.53;;
12385;SDS011;6257;57.634;18.310;2022-08-25T01:36:46;2.63;;;1.60;;
12385;SDS011;6257;57.634;18.310;2022-08-25T01:39:13;2.60;;;1.43;;
12385;SDS011;6257;57.634;18.310;2022-08-25T01:41:44;1.67;;;1.57;;
12385;SDS011;6257;57.634;18.310;2022-08-25T01:44:20;1.60;;;1.50;;
12385;SDS011;6257;57.634;18.310;2022-08-25T01:46:47;1.80;;;1.50;;
12385;SDS011;6257;57.634;18.310;2022-08-25T01:49:14;3.23;;;1.53;;
12385;SDS011;6257;57.634;18.310;2022-08-25T01:51:43;1.80;;;1.37;;
12385;SDS011;6257;57.634;18.310;2022-08-25T01:54:14;1.77;;;1.47;;
12385;SDS011;6257;57.634;18.310;2022-08-25T01:56:41;2.63;;;1.57;;
12385;SDS011;6257;57.634;18.310;2022-08-25T01:59:09;2.10;;;1.40;;
12385;SDS011;6257;57.634;18.310;2022-08-25T02:01:36;2.73;;;1.40;;
12385;SDS011;6257;57.634;18.310;2022-08-25T02:04:03;2.40;;;1.70;;
12385;SDS011;6257;57.634;18.310;2022-08-25T02:06:31;3.87;;;1.97;;
12385;SDS011;6257;57.634;18.310;2022-08-25T02:09:00;2.70;;;1.40;;
12385;SDS011;6257;57.634;18.310;2022-08-25T02:11:32;1.63;;;1.50;;
12385;SDS011;6257;57.634;18.310;2022-08-25T02:14:01;2.67;;;1.50;;
12385;SDS011;6257;57.634;18.310;2022-08-25T02:16:30;2.83;;;1.93;;
12385;SDS011;6257;57.634;18.310;2022-08-25T02:18:58;2.40;;;2.07;;
12385;SDS011;6257;57.634;18.310;2022-08-25T02:21:26;3.40;;;1.87;;
12385;SDS011;6257;57.634;18.310;2022-08-25T02:23:54;4.10;;;1.97;;
12385;SDS011;6257;57.634;18.310;2022-08-25T02:26:21;2.37;;;1.60;;
12385;SDS011;6257;57.634;18.310;2022-08-25T02:28:50;3.47;;;1.60;;
12385;SDS011;6257;57.634;18.310;2022-08-25T02:31:18;2.37;;;1.47;;
12385;SDS011;6257;57.634;18.310;2022-08-25T02:33:47;2.37;;;1.40;;
12385;SDS011;6257;57.634;18.310;2022-08-25T02:36:15;1.70;;;1.60;;
12385;SDS011;6257;57.634;18.310;2022-08-25T02:38:42;1.90;;;1.50;;
12385;SDS011;6257;57.634;18.310;2022-08-25T02:41:10;2.03;;;1.67;;
12385;SDS011;6257;57.634;18.310;2022-08-25T02:43:38;5.13;;;1.73;;
12385;SDS011;6257;57.634;18.310;2022-08-25T02:46:08;2.27;;;1.57;;
12385;SDS011;6257;57.634;18.310;2022-08-25T02:48:36;2.97;;;1.70;;
12385;SDS011;6257;57.634;18.310;2022-08-25T02:51:04;1.60;;;1.50;;
12385;SDS011;6257;57.634;18.310;2022-08-25T02:53:33;1.70;;;1.60;;
12385;SDS011;6257;57.634;18.310;2022-08-25T02:56:03;2.37;;;1.83;;
12385;SDS011;6257;57.634;18.310;2022-08-25T02:58:32;2.30;;;1.70;;
12385;SDS011;6257;57.634;18.310;2022-08-25T03:01:00;2.47;;;1.70;;
12385;SDS011;6257;57.634;18.310;2022-08-25T03:03:28;2.53;;;1.70;;
12385;SDS011;6257;57.634;18.310;2022-08-25T03:05:55;1.70;;;1.50;;
12385;SDS011;6257;57.634;18.310;2022-08-25T03:08:22;4.40;;;1.80;;
12385;SDS011;6257;57.634;18.310;2022-08-25T03:10:50;1.97;;;1.60;;
12385;SDS011;6257;57.634;18.310;2022-08-25T03:13:17;2.43;;;1.80;;
12385;SDS011;6257;57.634;18.310;2022-08-25T03:15:44;3.63;;;1.80;;
12385;SDS011;6257;57.634;18.310;2022-08-25T03:18:11;4.47;;;1.70;;
12385;SDS011;6257;57.634;18.310;2022-08-25T03:20:40;2.83;;;1.90;;
12385;SDS011;6257;57.634;18.310;2022-08-25T03:23:08;2.43;;;1.60;;
12385;SDS011;6257;57.634;18.310;2022-08-25T03:25:37;4.90;;;1.80;;
12385;SDS011;6257;57.634;18.310;2022-08-25T03:28:22;1.97;;;1.67;;
12385;SDS011;6257;57.634;18.310;2022-08-25T03:30:49;1.70;;;1.60;;
12385;SDS011;6257;57.634;18.310;2022-08-25T03:33:17;1.73;;;1.60;;
12385;SDS011;6257;57.634;18.310;2022-08-25T03:35:45;3.67;;;1.80;;
12385;SDS011;6257;57.634;18.310;2022-08-25T03:38:12;2.63;;;1.83;;
12385;SDS011;6257;57.634;18.310;2022-08-25T03:40:41;3.13;;;1.80;;
12385;SDS011;6257;57.634;18.310;2022-08-25T03:43:08;2.43;;;1.73;;
12385;SDS011;6257;57.634;18.310;2022-08-25T03:45:38;3.80;;;1.60;;
12385;SDS011;6257;57.634;18.310;2022-08-25T03:48:06;2.63;;;1.80;;
12385;SDS011;6257;57.634;18.310;2022-08-25T03:50:33;4.60;;;2.03;;
12385;SDS011;6257;57.634;18.310;2022-08-25T03:53:02;3.57;;;1.70;;
12385;SDS011;6257;57.634;18.310;2022-08-25T03:55:29;3.27;;;1.57;;
12385;SDS011;6257;57.634;18.310;2022-08-25T03:57:56;3.30;;;1.90;;
12385;SDS011;6257;57.634;18.310;2022-08-25T04:00:23;2.80;;;1.70;;
12385;SDS011;6257;57.634;18.310;2022-08-25T04:02:50;2.20;;;1.53;;
12385;SDS011;6257;57.634;18.310;2022-08-25T04:05:17;2.40;;;1.47;;
12385;SDS011;6257;57.634;18.310;2022-08-25T04:07:44;2.23;;;1.63;;
12385;SDS011;6257;57.634;18.310;2022-08-25T04:10:13;3.87;;;1.90;;
12385;SDS011;6257;57.634;18.310;2022-08-25T04:12:40;3.93;;;1.80;;
12385;SDS011;6257;57.634;18.310;2022-08-25T04:15:08;3.80;;;1.77;;
12385;SDS011;6257;57.634;18.310;2022-08-25T04:17:36;4.03;;;1.90;;
12385;SDS011;6257;57.634;18.310;2022-08-25T04:20:06;3.67;;;2.10;;
12385;SDS011;6257;57.634;18.310;2022-08-25T04:22:35;2.93;;;2.17;;
12385;SDS011;6257;57.634;18.310;2022-08-25T04:25:03;3.77;;;2.13;;
12385;SDS011;6257;57.634;18.310;2022-08-25T04:27:32;2.60;;;2.10;;
12385;SDS011;6257;57.634;18.310;2022-08-25T04:30:01;3.93;;;2.00;;
12385;SDS011;6257;57.634;18.310;2022-08-25T04:32:29;3.20;;;1.93;;
12385;SDS011;6257;57.634;18.310;2022-08-25T04:34:56;2.93;;;1.97;;
12385;SDS011;6257;57.634;18.310;2022-08-25T04:37:23;2.03;;;1.77;;
12385;SDS011;6257;57.634;18.310;2022-08-25T04:39:50;5.63;;;2.00;;
12385;SDS011;6257;57.634;18.310;2022-08-25T04:42:18;2.67;;;1.63;;
12385;SDS011;6257;57.634;18.310;2022-08-25T04:44:48;4.17;;;1.60;;
12385;SDS011;6257;57.634;18.310;2022-08-25T04:47:15;2.83;;;1.70;;
12385;SDS011;6257;57.634;18.310;2022-08-25T04:49:43;2.47;;;1.60;;
12385;SDS011;6257;57.634;18.310;2022-08-25T04:52:11;1.83;;;1.50;;
12385;SDS011;6257;57.634;18.310;2022-08-25T04:54:38;2.23;;;1.30;;
12385;SDS011;6257;57.634;18.310;2022-08-25T04:57:06;2.07;;;1.80;;
12385;SDS011;6257;57.634;18.310;2022-08-25T04:59:33;3.33;;;1.40;;
12385;SDS011;6257;57.634;18.310;2022-08-25T05:02:02;2.83;;;1.43;;
12385;SDS011;6257;57.634;18.310;2022-08-25T05:04:30;1.97;;;1.10;;
12385;SDS011;6257;57.634;18.310;2022-08-25T05:07:00;4.30;;;1.40;;
12385;SDS011;6257;57.634;18.310;2022-08-25T05:09:28;2.67;;;1.20;;
12385;SDS011;6257;57.634;18.310;2022-08-25T05:11:55;2.40;;;1.40;;
12385;SDS011;6257;57.634;18.310;2022-08-25T05:14:22;3.23;;;1.00;;
12385;SDS011;6257;57.634;18.310;2022-08-25T05:16:50;2.60;;;1.13;;
12385;SDS011;6257;57.634;18.310;2022-08-25T05:19:18;4.27;;;1.03;;
12385;SDS011;6257;57.634;18.310;2022-08-25T05:21:45;4.07;;;1.30;;
12385;SDS011;6257;57.634;18.310;2022-08-25T05:24:12;2.27;;;1.10;;
12385;SDS011;6257;57.634;18.310;2022-08-25T05:26:40;5.00;;;1.20;;
12385;SDS011;6257;57.634;18.310;2022-08-25T05:29:07;2.53;;;1.20;;
12385;SDS011;6257;57.634;18.310;2022-08-25T05:31:35;1.70;;;1.17;;
12385;SDS011;6257;57.634;18.310;2022-08-25T05:34:04;3.60;;;1.50;;
12385;SDS011;6257;57.634;18.310;2022-08-25T05:36:33;4.03;;;2.20;;
12385;SDS011;6257;57.634;18.310;2022-08-25T05:39:01;5.03;;;3.03;;
12385;SDS011;6257;57.634;18.310;2022-08-25T05:41:29;3.77;;;2.90;;
12385;SDS011;6257;57.634;18.310;2022-08-25T05:43:57;3.03;;;2.63;;
12385;SDS011;6257;57.634;18.310;2022-08-25T05:46:24;3.17;;;2.37;;
12385;SDS011;6257;57.634;18.310;2022-08-25T05:48:52;3.83;;;2.43;;
12385;SDS011;6257;57.634;18.310;2022-08-25T05:51:19;3.43;;;1.60;;
12385;SDS011;6257;57.634;18.310;2022-08-25T05:53:48;4.27;;;1.77;;
12385;SDS011;6257;57.634;18.310;2022-08-25T05:56:17;2.00;;;1.53;;
12385;SDS011;6257;57.634;18.310;2022-08-25T05:58:45;3.37;;;1.47;;
12385;SDS011;6257;57.634;18.310;2022-08-25T06:01:20;2.03;;;1.13;;
12385;SDS011;6257;57.634;18.310;2022-08-25T06:04:07;1.20;;;0.83;;
12385;SDS011;6257;57.634;18.310;2022-08-25T06:06:36;2.97;;;1.13;;
12385;SDS011;6257;57.634;18.310;2022-08-25T06:09:05;3.73;;;1.00;;
12385;SDS011;6257;57.634;18.310;2022-08-25T06:11:34;1.63;;;1.00;;
12385;SDS011;6257;57.634;18.310;2022-08-25T06:14:03;1.33;;;0.90;;
12385;SDS011;6257;57.634;18.310;2022-08-25T06:16:31;2.20;;;1.00;;
12385;SDS011;6257;57.634;18.310;2022-08-25T06:18:58;4.37;;;1.00;;
12385;SDS011;6257;57.634;18.310;2022-08-25T06:21:26;2.57;;;0.87;;
12385;SDS011;6257;57.634;18.310;2022-08-25T06:23:53;3.23;;;0.80;;
12385;SDS011;6257;57.634;18.310;2022-08-25T06:26:21;0.70;;;0.70;;
12385;SDS011;6257;57.634;18.310;2022-08-25T06:28:48;1.10;;;0.83;;
12385;SDS011;6257;57.634;18.310;2022-08-25T06:31:16;3.07;;;0.90;;
12385;SDS011;6257;57.634;18.310;2022-08-25T06:33:44;0.80;;;0.70;;
12385;SDS011;6257;57.634;18.310;2022-08-25T06:36:11;1.13;;;0.63;;
12385;SDS011;6257;57.634;18.310;2022-08-25T06:38:39;3.13;;;0.90;;
12385;SDS011;6257;57.634;18.310;2022-08-25T06:41:07;1.50;;;0.80;;
12385;SDS011;6257;57.634;18.310;2022-08-25T06:43:37;1.43;;;1.00;;
12385;SDS011;6257;57.634;18.310;2022-08-25T06:46:07;1.20;;;0.80;;
12385;SDS011;6257;57.634;18.310;2022-08-25T06:48:36;0.93;;;0.80;;
12385;SDS011;6257;57.634;18.310;2022-08-25T06:51:04;1.43;;;0.70;;
12385;SDS011;6257;57.634;18.310;2022-08-25T06:53:32;1.90;;;0.70;;
12385;SDS011;6257;57.634;18.310;2022-08-25T06:56:00;1.30;;;0.67;;
12385;SDS011;6257;57.634;18.310;2022-08-25T06:58:27;1.53;;;0.80;;
12385;SDS011;6257;57.634;18.310;2022-08-25T07:00:56;3.93;;;1.07;;
12385;SDS011;6257;57.634;18.310;2022-08-25T07:03:32;2.17;;;0.93;;
12385;SDS011;6257;57.634;18.310;2022-08-25T07:05:59;1.20;;;0.70;;
12385;SDS011;6257;57.634;18.310;2022-08-25T07:08:26;1.30;;;0.80;;
12385;SDS011;6257;57.634;18.310;2022-08-25T07:10:54;0.87;;;0.80;;
12385;SDS011;6257;57.634;18.310;2022-08-25T07:13:21;1.70;;;0.63;;
12385;SDS011;6257;57.634;18.310;2022-08-25T07:15:49;4.20;;;0.70;;
12385;SDS011;6257;57.634;18.310;2022-08-25T07:18:20;3.10;;;0.90;;
12385;SDS011;6257;57.634;18.310;2022-08-25T07:20:47;2.70;;;0.63;;
12385;SDS011;6257;57.634;18.310;2022-08-25T07:23:16;4.13;;;0.87;;
12385;SDS011;6257;57.634;18.310;2022-08-25T07:25:43;1.40;;;0.70;;
12385;SDS011;6257;57.634;18.310;2022-08-25T07:28:10;1.20;;;0.70;;
12385;SDS011;6257;57.634;18.310;2022-08-25T07:30:37;1.37;;;0.70;;
12385;SDS011;6257;57.634;18.310;2022-08-25T07:33:04;1.17;;;0.63;;
12385;SDS011;6257;57.634;18.310;2022-08-25T07:35:33;1.60;;;0.80;;
12385;SDS011;6257;57.634;18.310;2022-08-25T07:38:01;5.70;;;0.73;;
12385;SDS011;6257;57.634;18.310;2022-08-25T07:40:30;2.60;;;0.53;;
12385;SDS011;6257;57.634;18.310;2022-08-25T07:43:00;2.33;;;0.77;;
12385;SDS011;6257;57.634;18.310;2022-08-25T07:45:29;3.57;;;0.90;;
12385;SDS011;6257;57.634;18.310;2022-08-25T07:47:58;3.80;;;0.80;;
12385;SDS011;6257;57.634;18.310;2022-08-25T07:50:28;2.70;;;0.70;;
12385;SDS011;6257;57.634;18.310;2022-08-25T07:52:56;1.97;;;0.83;;
12385;SDS011;6257;57.634;18.310;2022-08-25T07:55:24;1.93;;;1.17;;
12385;SDS011;6257;57.634;18.310;2022-08-25T07:57:53;0.60;;;0.60;;
12385;SDS011;6257;57.634;18.310;2022-08-25T08:00:24;1.77;;;0.80;;
12385;SDS011;6257;57.634;18.310;2022-08-25T08:02:54;0.97;;;0.73;;
12385;SDS011;6257;57.634;18.310;2022-08-25T08:05:22;1.20;;;0.70;;
12385;SDS011;6257;57.634;18.310;2022-08-25T08:07:49;1.60;;;0.93;;
12385;SDS011;6257;57.634;18.310;2022-08-25T08:10:18;2.87;;;0.73;;
12385;SDS011;6257;57.634;18.310;2022-08-25T08:12:45;2.00;;;0.60;;
12385;SDS011;6257;57.634;18.310;2022-08-25T08:15:12;1.23;;;0.80;;
12385;SDS011;6257;57.634;18.310;2022-08-25T08:17:40;1.47;;;0.80;;
12385;SDS011;6257;57.634;18.310;2022-08-25T08:20:08;2.03;;;0.83;;
12385;SDS011;6257;57.634;18.310;2022-08-25T08:22:35;1.80;;;0.60;;
12385;SDS011;6257;57.634;18.310;2022-08-25T08:25:05;1.73;;;0.70;;
12385;SDS011;6257;57.634;18.310;2022-08-25T08:27:34;2.77;;;0.80;;
12385;SDS011;6257;57.634;18.310;2022-08-25T08:30:01;1.50;;;0.87;;
12385;SDS011;6257;57.634;18.310;2022-08-25T08:32:28;2.00;;;0.80;;
12385;SDS011;6257;57.634;18.310;2022-08-25T08:34:55;0.97;;;0.70;;
12385;SDS011;6257;57.634;18.310;2022-08-25T08:37:22;1.37;;;0.60;;
12385;SDS011;6257;57.634;18.310;2022-08-25T08:39:49;1.67;;;0.70;;
12385;SDS011;6257;57.634;18.310;2022-08-25T08:42:19;1.00;;;0.60;;
12385;SDS011;6257;57.634;18.310;2022-08-25T08:45:04;0.77;;;0.63;;
12385;SDS011;6257;57.634;18.310;2022-08-25T08:47:48;1.47;;;0.80;;
12385;SDS011;6257;57.634;18.310;2022-08-25T08:50:28;0.93;;;0.80;;
12385;SDS011;6257;57.634;18.310;2022-08-25T08:53:00;2.77;;;0.93;;
12385;SDS011;6257;57.634;18.310;2022-08-25T08:55:33;3.30;;;0.60;;
12385;SDS011;6257;57.634;18.310;2022-08-25T08:58:04;1.97;;;0.80;;
12385;SDS011;6257;57.634;18.310;2022-08-25T09:00:38;1.53;;;0.70;;
12385;SDS011;6257;57.634;18.310;2022-08-25T09:03:10;2.10;;;0.80;;
12385;SDS011;6257;57.634;18.310;2022-08-25T09:05:43;1.27;;;0.70;;
12385;SDS011;6257;57.634;18.310;2022-08-25T09:08:13;1.80;;;0.60;;
12385;SDS011;6257;57.634;18.310;2022-08-25T09:10:45;1.10;;;0.70;;
12385;SDS011;6257;57.634;18.310;2022-08-25T09:13:23;0.67;;;0.60;;
12385;SDS011;6257;57.634;18.310;2022-08-25T09:16:01;0.87;;;0.60;;
12385;SDS011;6257;57.634;18.310;2022-08-25T09:18:54;1.43;;;0.80;;
12385;SDS011;6257;57.634;18.310;2022-08-25T09:21:29;3.83;;;0.80;;
12385;SDS011;6257;57.634;18.310;2022-08-25T09:24:07;1.70;;;0.83;;
12385;SDS011;6257;57.634;18.310;2022-08-25T09:26:48;0.87;;;0.70;;
12385;SDS011;6257;57.634;18.310;2022-08-25T09:29:23;1.83;;;0.70;;
12385;SDS011;6257;57.634;18.310;2022-08-25T09:31:56;2.13;;;0.70;;
12385;SDS011;6257;57.634;18.310;2022-08-25T09:34:27;2.03;;;0.70;;
12385;SDS011;6257;57.634;18.310;2022-08-25T09:36:58;2.00;;;0.97;;
12385;SDS011;6257;57.634;18.310;2022-08-25T09:39:26;2.53;;;0.77;;
12385;SDS011;6257;57.634;18.310;2022-08-25T09:41:54;0.77;;;0.60;;
12385;SDS011;6257;57.634;18.310;2022-08-25T09:44:23;0.50;;;0.50;;
12385;SDS011;6257;57.634;18.310;2022-08-25T09:47:14;0.70;;;0.60;;
12385;SDS011;6257;57.634;18.310;2022-08-25T09:49:47;1.27;;;0.80;;
12385;SDS011;6257;57.634;18.310;2022-08-25T09:55:23;1.33;;;0.60;;
12385;SDS011;6257;57.634;18.310;2022-08-25T09:57:54;0.97;;;0.70;;
12385;SDS011;6257;57.634;18.310;2022-08-25T10:00:23;0.93;;;0.60;;
12385;SDS011;6257;57.634;18.310;2022-08-25T10:03:05;1.10;;;0.90;;
12385;SDS011;6257;57.634;18.310;2022-08-25T10:05:38;1.03;;;0.70;;
12385;SDS011;6257;57.634;18.310;2022-08-25T10:08:26;2.77;;;0.70;;
12385;SDS011;6257;57.634;18.310;2022-08-25T10:10:57;1.90;;;1.00;;
12385;SDS011;6257;57.634;18.310;2022-08-25T10:13:33;1.73;;;0.83;;
12385;SDS011;6257;57.634;18.310;2022-08-25T10:16:03;1.37;;;0.70;;
12385;SDS011;6257;57.634;18.310;2022-08-25T10:18:34;2.20;;;0.67;;
12385;SDS011;6257;57.634;18.310;2022-08-25T10:21:03;1.90;;;0.83;;
12385;SDS011;6257;57.634;18.310;2022-08-25T10:23:33;1.03;;;0.80;;
12385;SDS011;6257;57.634;18.310;2022-08-25T10:26:03;1.93;;;0.70;;
12385;SDS011;6257;57.634;18.310;2022-08-25T10:28:36;1.90;;;0.70;;
12385;SDS011;6257;57.634;18.310;2022-08-25T10:31:14;1.23;;;0.70;;
12385;SDS011;6257;57.634;18.310;2022-08-25T10:33:51;2.93;;;0.80;;
12385;SDS011;6257;57.634;18.310;2022-08-25T10:36:31;1.43;;;0.63;;
12385;SDS011;6257;57.634;18.310;2022-08-25T10:39:10;0.97;;;0.70;;
12385;SDS011;6257;57.634;18.310;2022-08-25T10:41:49;1.93;;;0.70;;
12385;SDS011;6257;57.634;18.310;2022-08-25T10:44:23;1.77;;;0.57;;
12385;SDS011;6257;57.634;18.310;2022-08-25T10:47:21;1.90;;;0.70;;
12385;SDS011;6257;57.634;18.310;2022-08-25T10:50:08;2.03;;;0.70;;
12385;SDS011;6257;57.634;18.310;2022-08-25T10:52:43;1.97;;;1.30;;
12385;SDS011;6257;57.634;18.310;2022-08-25T10:55:19;2.67;;;1.03;;
12385;SDS011;6257;57.634;18.310;2022-08-25T10:57:53;1.77;;;0.80;;
12385;SDS011;6257;57.634;18.310;2022-08-25T11:00:25;2.93;;;0.87;;
12385;SDS011;6257;57.634;18.310;2022-08-25T11:03:06;1.83;;;0.70;;
12385;SDS011;6257;57.634;18.310;2022-08-25T11:05:46;0.80;;;0.70;;
12385;SDS011;6257;57.634;18.310;2022-08-25T11:08:20;2.10;;;0.70;;
12385;SDS011;6257;57.634;18.310;2022-08-25T11:11:02;0.67;;;0.67;;
12385;SDS011;6257;57.634;18.310;2022-08-25T11:13:37;1.80;;;0.80;;
12385;SDS011;6257;57.634;18.310;2022-08-25T11:16:09;2.03;;;0.70;;
12385;SDS011;6257;57.634;18.310;2022-08-25T11:18:42;3.20;;;0.83;;
12385;SDS011;6257;57.634;18.310;2022-08-25T11:21:15;3.07;;;0.90;;
12385;SDS011;6257;57.634;18.310;2022-08-25T11:23:48;2.83;;;0.80;;
12385;SDS011;6257;57.634;18.310;2022-08-25T11:26:21;2.50;;;0.80;;
12385;SDS011;6257;57.634;18.310;2022-08-25T11:28:56;1.30;;;0.60;;
12385;SDS011;6257;57.634;18.310;2022-08-25T11:31:28;3.40;;;0.63;;
12385;SDS011;6257;57.634;18.310;2022-08-25T11:33:55;1.17;;;0.60;;
12385;SDS011;6257;57.634;18.310;2022-08-25T11:36:27;0.90;;;0.70;;
12385;SDS011;6257;57.634;18.310;2022-08-25T11:39:03;2.57;;;0.77;;
12385;SDS011;6257;57.634;18.310;2022-08-25T11:41:39;1.13;;;0.70;;
12385;SDS011;6257;57.634;18.310;2022-08-25T11:44:25;0.87;;;0.70;;
12385;SDS011;6257;57.634;18.310;2022-08-25T11:47:11;3.20;;;0.77;;
12385;SDS011;6257;57.634;18.310;2022-08-25T11:49:57;1.67;;;0.70;;
12385;SDS011;6257;57.634;18.310;2022-08-25T11:52:46;2.00;;;0.80;;
12385;SDS011;6257;57.634;18.310;2022-08-25T11:55:19;2.07;;;0.80;;
12385;SDS011;6257;57.634;18.310;2022-08-25T11:57:52;2.53;;;0.80;;
12385;SDS011;6257;57.634;18.310;2022-08-25T12:00:51;2.23;;;0.90;;
12385;SDS011;6257;57.634;18.310;2022-08-25T12:06:27;4.23;;;0.90;;
12385;SDS011;6257;57.634;18.310;2022-08-25T12:11:53;2.20;;;0.80;;
12385;SDS011;6257;57.634;18.310;2022-08-25T12:14:35;0.80;;;0.70;;
12385;SDS011;6257;57.634;18.310;2022-08-25T12:17:20;1.17;;;0.80;;
12385;SDS011;6257;57.634;18.310;2022-08-25T12:19:56;1.30;;;0.70;;
12385;SDS011;6257;57.634;18.310;2022-08-25T12:22:47;1.30;;;0.83;;
12385;SDS011;6257;57.634;18.310;2022-08-25T12:25:30;0.80;;;0.63;;
12385;SDS011;6257;57.634;18.310;2022-08-25T12:31:07;2.70;;;0.70;;
12385;SDS011;6257;57.634;18.310;2022-08-25T12:33:51;3.23;;;0.80;;
12385;SDS011;6257;57.634;18.310;2022-08-25T12:36:32;4.53;;;1.07;;
12385;SDS011;6257;57.634;18.310;2022-08-25T12:39:14;1.40;;;0.70;;
12385;SDS011;6257;57.634;18.310;2022-08-25T12:41:56;2.23;;;0.70;;
12385;SDS011;6257;57.634;18.310;2022-08-25T12:44:34;0.77;;;0.60;;
12385;SDS011;6257;57.634;18.310;2022-08-25T12:47:05;3.43;;;1.00;;
12385;SDS011;6257;57.634;18.310;2022-08-25T12:49:37;2.20;;;0.80;;
12385;SDS011;6257;57.634;18.310;2022-08-25T12:52:06;1.07;;;0.70;;
12385;SDS011;6257;57.634;18.310;2022-08-25T12:54:41;1.77;;;0.80;;
12385;SDS011;6257;57.634;18.310;2022-08-25T12:57:26;1.13;;;0.90;;
12385;SDS011;6257;57.634;18.310;2022-08-25T13:00:05;2.20;;;0.90;;
12385;SDS011;6257;57.634;18.310;2022-08-25T13:03:01;3.53;;;1.50;;
12385;SDS011;6257;57.634;18.310;2022-08-25T13:12:05;2.10;;;0.60;;
12385;SDS011;6257;57.634;18.310;2022-08-25T13:14:42;1.00;;;0.80;;
12385;SDS011;6257;57.634;18.310;2022-08-25T13:17:11;1.43;;;0.70;;
12385;SDS011;6257;57.634;18.310;2022-08-25T13:19:51;1.93;;;0.90;;
12385;SDS011;6257;57.634;18.310;2022-08-25T13:22:33;1.53;;;0.80;;
12385;SDS011;6257;57.634;18.310;2022-08-25T13:25:01;2.83;;;1.20;;
12385;SDS011;6257;57.634;18.310;2022-08-25T13:27:29;0.70;;;0.70;;
12385;SDS011;6257;57.634;18.310;2022-08-25T13:30:00;1.30;;;0.70;;
12385;SDS011;6257;57.634;18.310;2022-08-25T13:32:30;1.40;;;0.77;;
12385;SDS011;6257;57.634;18.310;2022-08-25T13:35:10;1.33;;;0.70;;
12385;SDS011;6257;57.634;18.310;2022-08-25T13:37:41;2.53;;;0.83;;
12385;SDS011;6257;57.634;18.310;2022-08-25T13:40:09;1.13;;;0.80;;
12385;SDS011;6257;57.634;18.310;2022-08-25T13:42:41;0.90;;;0.70;;
12385;SDS011;6257;57.634;18.310;2022-08-25T13:45:13;1.63;;;0.83;;
12385;SDS011;6257;57.634;18.310;2022-08-25T13:47:42;1.70;;;0.90;;
12385;SDS011;6257;57.634;18.310;2022-08-25T13:50:18;1.17;;;0.70;;
12385;SDS011;6257;57.634;18.310;2022-08-25T13:52:48;0.93;;;0.80;;
12385;SDS011;6257;57.634;18.310;2022-08-25T13:55:20;2.33;;;0.90;;
12385;SDS011;6257;57.634;18.310;2022-08-25T13:57:49;2.60;;;0.70;;
12385;SDS011;6257;57.634;18.310;2022-08-25T14:00:26;1.40;;;0.90;;
12385;SDS011;6257;57.634;18.310;2022-08-25T14:02:56;1.07;;;0.70;;
12385;SDS011;6257;57.634;18.310;2022-08-25T14:05:35;1.37;;;0.90;;
12385;SDS011;6257;57.634;18.310;2022-08-25T14:08:05;1.67;;;0.70;;
12385;SDS011;6257;57.634;18.310;2022-08-25T14:10:36;1.70;;;1.00;;
12385;SDS011;6257;57.634;18.310;2022-08-25T14:13:07;1.40;;;0.70;;
12385;SDS011;6257;57.634;18.310;2022-08-25T14:15:38;1.30;;;0.70;;
12385;SDS011;6257;57.634;18.310;2022-08-25T14:18:08;1.13;;;0.80;;
12385;SDS011;6257;57.634;18.310;2022-08-25T14:20:42;1.70;;;0.80;;
12385;SDS011;6257;57.634;18.310;2022-08-25T14:23:13;1.07;;;0.73;;
12385;SDS011;6257;57.634;18.310;2022-08-25T14:25:42;2.07;;;0.73;;
12385;SDS011;6257;57.634;18.310;2022-08-25T14:28:10;1.50;;;0.80;;
12385;SDS011;6257;57.634;18.310;2022-08-25T14:30:41;0.80;;;0.70;;
12385;SDS011;6257;57.634;18.310;2022-08-25T14:33:11;0.80;;;0.70;;
12385;SDS011;6257;57.634;18.310;2022-08-25T14:35:40;2.87;;;0.90;;
12385;SDS011;6257;57.634;18.310;2022-08-25T14:38:10;3.47;;;0.80;;
12385;SDS011;6257;57.634;18.310;2022-08-25T14:40:38;3.47;;;0.70;;
12385;SDS011;6257;57.634;18.310;2022-08-25T14:43:05;1.37;;;0.87;;
12385;SDS011;6257;57.634;18.310;2022-08-25T14:45:32;1.33;;;0.80;;
12385;SDS011;6257;57.634;18.310;2022-08-25T14:48:04;2.40;;;0.70;;
12385;SDS011;6257;57.634;18.310;2022-08-25T14:50:33;1.00;;;0.90;;
12385;SDS011;6257;57.634;18.310;2022-08-25T14:53:02;1.30;;;0.80;;
12385;SDS011;6257;57.634;18.310;2022-08-25T14:55:29;1.47;;;0.67;;
12385;SDS011;6257;57.634;18.310;2022-08-25T14:57:56;0.87;;;0.87;;
12385;SDS011;6257;57.634;18.310;2022-08-25T15:00:23;0.87;;;0.80;;
12385;SDS011;6257;57.634;18.310;2022-08-25T15:02:50;1.30;;;0.67;;
12385;SDS011;6257;57.634;18.310;2022-08-25T15:05:21;1.23;;;0.70;;
12385;SDS011;6257;57.634;18.310;2022-08-25T15:07:51;0.77;;;0.60;;
12385;SDS011;6257;57.634;18.310;2022-08-25T15:10:37;1.33;;;0.60;;
12385;SDS011;6257;57.634;18.310;2022-08-25T15:13:04;1.13;;;0.77;;
12385;SDS011;6257;57.634;18.310;2022-08-25T15:15:31;0.97;;;0.90;;
12385;SDS011;6257;57.634;18.310;2022-08-25T15:17:59;1.93;;;0.70;;
12385;SDS011;6257;57.634;18.310;2022-08-25T15:20:28;0.73;;;0.70;;
12385;SDS011;6257;57.634;18.310;2022-08-25T15:22:55;1.67;;;0.70;;
12385;SDS011;6257;57.634;18.310;2022-08-25T15:25:22;2.17;;;0.90;;
12385;SDS011;6257;57.634;18.310;2022-08-25T15:27:49;1.80;;;0.83;;
12385;SDS011;6257;57.634;18.310;2022-08-25T15:30:16;1.20;;;0.70;;